Tiempo atmosférico en la estación meteorológica de Villanueva Del Fresno, Badajoz (247 m.)



Fecha
DESCASC
Temp. máxima en grados centígrados (hora)
DESCASC
Temp. mínima en grados centígrados (hora)
DESCASC
Temp. media en grados centígrados
DESCASC
Racha de viento máxima en m/sg (hora)
DESCASC
Velocidad máxima media en intervalos de 10 minutos(hora)
DESCASC
Precipitaciones diarias en mm
DESCASC
Precipitaciones de 00:00 a 06:00 en mm
DESCASC
Precipitaciones de 06:00 a 12:00 en mm
DESCASC
Precipitaciones de 12:00 a 18:00 en mm
DESCASC
Precipitaciones de 18:00 a 24:00 en mm
DESCASC
31-03-2020 14.1 (14:50) 7.4 (23:59) 10.8 10 (16:00) 6.94 (16:20) 11.4 10.2 1 0.2 0
30-03-2020 14.9 (13:50) 8.1 (07:20) 11.5 8.61 (17:20) 5.83 (16:20) 1.6 0 0 0 1.6
29-03-2020 18.8 (16:20) 8.2 (00:00) 13.5 6.67 (16:20) 4.17 (16:30) 0 0 0 0 0
28-03-2020 18.5 (18:20) 4.3 (00:00) 11.4 6.11 (15:00) 3.89 (15:00) 0 0 0 0 0
27-03-2020 16.7 (16:30) 6.4 (00:00) 11.6 5.83 (18:30) 3.89 (18:30) 0 0 0 0 0
26-03-2020 -- (--) -- (--) -- -- (--) -- (--) -- -- -- -- 0
25-03-2020 -- (--) -- (--) -- -- (--) -- (--) -- -- -- -- --
24-03-2020 -- (--) -- (--) -- -- (--) -- (--) -- -- -- -- --
23-03-2020 -- (--) -- (--) -- -- (--) -- (--) -- -- -- -- --
22-03-2020 -- (--) -- (--) -- -- (--) -- (--) -- -- -- -- --
21-03-2020 -- (--) -- (--) -- -- (--) -- (--) -- 0.4 0 -- --
20-03-2020 14.9 (00:00) 9.3 (00:00) 12.1 6.39 (11:40) 4.44 (17:00) 35.6 0 0 7.8 27.8
19-03-2020 21.6 (16:20) 10.2 (00:00) 15.9 6.39 (00:20) 4.44 (07:50) 0 0 0 0 0
18-03-2020 22.6 (15:50) 11.1 (00:00) 16.9 9.17 (16:20) 6.39 (16:30) 0 0 0 0 0
17-03-2020 17.3 (17:40) 4.8 (00:00) 11 13.89 (11:30) 7.78 (13:10) 0 0 0 0 0
16-03-2020 15.1 (14:40) 4.3 (00:00) 9.7 14.72 (15:50) 7.78 (11:30) 4 0 0 0.4 3.6
15-03-2020 20.7 (15:30) 8.2 (00:00) 14.5 12.5 (22:20) 8.06 (21:00) 0 0 0 0 0
14-03-2020 22.9 (17:20) 9 (00:00) 15.9 5.83 (15:00) 3.61 (15:40) 0 0 0 0 0
13-03-2020 16.3 (18:00) 9.7 (07:10) 13 5.28 (16:30) 3.33 (15:50) 0 0 0 0 0
12-03-2020 22.6 (16:20) 13.2 (00:00) 17.9 9.72 (14:00) 5.83 (14:20) 0 0 0 0 0
11-03-2020 29 (14:10) 11 (00:00) 20 7.78 (14:20) 4.72 (17:00) 0 0 0 0 0
10-03-2020 27.1 (15:00) 8.2 (00:00) 17.7 6.67 (16:40) 4.72 (22:00) 0 0 0 0 0
09-03-2020 21.2 (15:50) 6.6 (00:00) 13.9 9.17 (17:10) 6.11 (16:30) 0 0 0 0 0
08-03-2020 18 (16:10) 3.4 (00:00) 10.7 6.94 (14:30) 3.89 (18:10) 0 0 0 0 0
07-03-2020 19.2 (16:30) 3.8 (00:00) 11.5 7.5 (16:10) 5 (02:20) 0 0 0 0 0
06-03-2020 16.4 (15:30) 7.4 (00:00) 11.9 12.78 (13:20) 9.17 (15:00) 0 0 0 0 0
05-03-2020 17.4 (16:50) 8.7 (00:00) 13 14.44 (10:10) 8.61 (17:20) 0.4 0 0.4 0 0
04-03-2020 19.7 (18:20) 11.9 (00:00) 15.8 7.5 (13:30) 4.72 (16:00) 0 0 0 0 0

Gráficas

Temp. máximas Temp. mínimas Temp. medias Precipitaciones Rachas de viento máximas Velocidades máximas media en intervalos de 10 minutos

Datos horarios

Fecha y hora oficial Temperatura (ºC) Velocidad del viento (km/h) Dirección del viento Racha (km/h) Dirección de racha Precipitación (mm) Presión (hPa) Tendencia (hPa) Humedad (%)
2020-04-02 23:00:00 12.9 4 Oeste 10 Oeste 0 -- -- 73
2020-04-02 22:00:00 13.7 5 Oeste 8 Oeste 0 -- -- 68
2020-04-02 21:00:00 15 6 Oeste 13 Noroeste 0 -- -- 65
2020-04-02 20:00:00 17.4 6 Norte 18 Norte 0 -- -- 54
2020-04-02 19:00:00 17.8 13 Norte 23 Norte 0 -- -- 50
2020-04-02 18:00:00 17.1 9 Nordeste 26 Nordeste 0 -- -- 49
2020-04-02 17:00:00 16.7 11 Nordeste 24 Norte 0 -- -- 55
2020-04-02 16:00:00 16.9 12 Nordeste 27 Nordeste 0 -- -- 58
2020-04-02 15:00:00 15.8 17 Nordeste 30 Nordeste 0 -- -- 62
2020-04-02 14:00:00 14.5 17 Nordeste 29 Este 0 -- -- 65
2020-04-02 13:00:00 12.9 16 Nordeste 27 Nordeste 0 -- -- 69
2020-04-02 12:00:00 11.5 14 Norte 28 Nordeste 0 -- -- 78
2020-04-02 11:00:00 9.6 13 Nordeste 31 Este 0 -- -- 85
2020-04-02 10:00:00 8.8 12 Nordeste 21 Nordeste 0 -- -- 93
2020-04-02 09:00:00 7.6 9 Nordeste 17 Nordeste 0 -- -- 97
2020-04-02 08:00:00 7.3 9 Nordeste 19 Nordeste 0 -- -- 97
2020-04-02 07:00:00 7.3 13 Nordeste 17 Nordeste 0 -- -- 97
2020-04-02 06:00:00 7.3 5 Nordeste 9 Nordeste 0 -- -- 97
2020-04-02 05:00:00 7.2 3 Nordeste 4 Este 0 -- -- 97
2020-04-02 04:00:00 7.3 0 Calma 6 Sudoeste 0 -- -- 96
2020-04-02 03:00:00 7.8 2 Oeste 7 Sudoeste 0 -- -- 96
2020-04-02 02:00:00 8 5 Sudoeste 7 Sudoeste 0 -- -- 95
2020-04-02 01:00:00 8.6 3 Sudoeste 10 Sudoeste 0 -- -- 94
2020-04-02 00:00:00 9.3 7 Sudoeste 10 Sur 0 -- -- 94
2020-04-01 23:00:00 9.2 6 Sur 12 Sur 0.2 -- -- 94
2020-04-01 22:00:00 9.6 5 Sur 8 Sudoeste 0.4 -- -- 94
2020-04-01 21:00:00 9.6 3 Oeste 26 Sudoeste 1.4 -- -- 90
2020-04-01 20:00:00 10.6 7 Sudeste 26 Sur 0.4 -- -- 89
2020-04-01 19:00:00 11.4 17 Sur 29 Sur 0 -- -- 84
2020-04-01 18:00:00 10.8 14 Sur 23 Sur 1.2 -- -- 86
2020-04-01 17:00:00 10.7 9 Sudoeste 36 Sur 1.8 -- -- 82
2020-04-01 16:00:00 12.7 16 Sur 26 Sudoeste 0.2 -- -- 76
2020-04-01 15:00:00 8.6 13 Sudoeste 44 Sudoeste 1.8 -- -- 92
2020-04-01 14:00:00 12.5 7 Sur 20 Sudeste 0 -- -- 79
2020-04-01 13:00:00 9.9 5 Sudeste 19 Sudoeste 1 -- -- 88
2020-04-01 12:00:00 8.5 6 Sur 12 Sudeste 0.6 -- -- 88
2020-04-01 11:00:00 7.3 5 Sudeste 19 Sur 0.2 -- -- 88
2020-04-01 10:00:00 6.8 15 Sudeste 21 Sudeste 0 -- -- 83
2020-04-01 09:00:00 5.9 15 Sudeste 21 Sudeste 0 -- -- 88
2020-04-01 08:00:00 4.9 5 Sudeste 13 Sudeste 0 -- -- 92
2020-04-01 07:00:00 4.6 5 Sudeste 15 Sudeste 0 -- -- 92
2020-04-01 06:00:00 5 6 Sudeste 10 Sudeste 0 -- -- 91
2020-04-01 05:00:00 5.1 5 Sur 8 Sudeste 0 -- -- 91
2020-04-01 04:00:00 5.2 2 Sur 5 Sur 0 -- -- 91
2020-04-01 03:00:00 5.5 2 Sudoeste 5 Sudeste 0 -- -- 89
2020-04-01 02:00:00 6.8 3 Sudoeste 6 Sudoeste 0 -- -- 85
2020-04-01 01:00:00 7.5 5 Oeste 12 Oeste 0 -- -- 80
2020-04-01 00:00:00 7.4 6 Oeste 12 Oeste 0 -- -- 80
2020-03-31 23:00:00 8.2 3 Oeste 11 Oeste 0 -- -- 81
2020-03-31 22:00:00 9 3 Noroeste 8 Noroeste 0 -- -- 80
2020-03-31 21:00:00 9.8 6 Noroeste 15 Noroeste 0 -- -- 78
2020-03-31 20:00:00 10.6 15 Oeste 26 Oeste 0 -- -- 77
2020-03-31 19:00:00 10.9 18 Oeste 34 Oeste 0 -- -- 79
2020-03-31 18:00:00 12.4 22 Oeste 35 Oeste 0 -- -- 78
2020-03-31 17:00:00 12.8 18 Oeste 35 Oeste 0 -- -- 78
2020-03-31 16:00:00 12.6 24 Oeste 36 Oeste 0 -- -- 81
2020-03-31 15:00:00 14 20 Oeste 27 Noroeste 0 -- -- 79
2020-03-31 14:00:00 12.4 15 Oeste 26 Oeste 0 -- -- 87
2020-03-31 13:00:00 11.6 11 Oeste 17 Oeste 0.2 -- -- 94
2020-03-31 12:00:00 11.1 9 Oeste 15 Sudoeste 0 -- -- 97
2020-03-31 11:00:00 10.2 5 Sudoeste 9 Sur 0 -- -- 97
2020-03-31 10:00:00 9.5 2 Oeste 5 Oeste 0 -- -- 97
2020-03-31 09:00:00 8.8 0 Calma 6 Nordeste 0 -- -- 97
2020-03-31 08:00:00 8.5 2 Sudeste 12 Nordeste 0.4 -- -- 97
2020-03-31 07:00:00 8.7 2 Nordeste 12 Este 0.6 -- -- 96
2020-03-31 06:00:00 9 7 Este 16 Norte 2.6 -- -- 96
2020-03-31 05:00:00 9.3 9 Nordeste 13 Norte 3.2 -- -- 96
2020-03-31 04:00:00 9.3 9 Nordeste 17 Este 1.8 -- -- 95
2020-03-31 03:00:00 9.4 13 Este 22 Este 0.2 -- -- 94
2020-03-31 02:00:00 9.5 13 Este 22 Este 0.4 -- -- 94
2020-03-31 01:00:00 9.5 12 Este 20 Este 2 -- -- 94
2020-03-31 00:00:00 9.7 12 Este 18 Este 1.6 -- -- 93
2020-03-30 23:00:00 10.6 8 Nordeste 12 Nordeste 0 -- -- 84
2020-03-30 22:00:00 10.6 3 Este 12 Sudeste 0 -- -- 81
2020-03-30 21:00:00 11.3 7 Sudeste 22 Sudeste 0 -- -- 79
2020-03-30 20:00:00 12 10 Sur 20 Sur 0 -- -- 79
2020-03-30 19:00:00 12.4 6 Sudeste 22 Sur 0 -- -- 79
2020-03-30 18:00:00 11.8 12 Sur 31 Sur 0 -- -- 80
2020-03-30 17:00:00 12.9 16 Sur 27 Sudoeste 0 -- -- 71
2020-03-30 16:00:00 14.7 13 Sudoeste 18 Sudoeste 0 -- -- 71
2020-03-30 15:00:00 14.4 10 Oeste 20 Oeste 0 -- -- 73
2020-03-30 14:00:00 14.8 13 Oeste 19 Oeste 0 -- -- 73
2020-03-30 13:00:00 14.5 6 Sudoeste 13 Sudoeste 0 -- -- 75
2020-03-30 12:00:00 13.7 7 Sur 12 Sudoeste 0 -- -- 77
2020-03-30 11:00:00 12.6 9 Sudeste 14 Sudeste 0 -- -- 80
2020-03-30 10:00:00 10.1 7 Sudeste 12 Sudeste 0 -- -- 91
2020-03-30 09:00:00 8.7 7 Sudeste 10 Sudeste 0 -- -- 93
2020-03-30 08:00:00 8.4 6 Este 9 Este 0 -- -- 93
2020-03-30 07:00:00 8.2 2 Sudeste 9 Sudeste 0 -- -- 91
2020-03-30 06:00:00 8.2 3 Sudeste 6 Sudeste 0 -- -- 90
2020-03-30 05:00:00 8.3 3 Sudeste 6 Sudeste 0 -- -- 89
2020-03-30 04:00:00 8.6 3 Sudeste 3 Sudeste 0 -- -- 89
2020-03-30 03:00:00 9.2 2 Sur 6 Nordeste 0 -- -- 87
2020-03-30 02:00:00 10.2 6 Nordeste 8 Nordeste 0 -- -- 82
2020-03-30 01:00:00 11.6 2 Oeste 12 Oeste 0 -- -- 77
2020-03-30 00:00:00 12.9 8 Sudoeste 15 Oeste 0 -- -- 75
2020-03-29 23:00:00 14.6 3 Sudoeste 7 Sudoeste 0 -- -- 68
2020-03-29 22:00:00 15.1 4 Sudoeste 9 Oeste 0 -- -- 68
2020-03-29 21:00:00 15.9 5 Noroeste 15 Noroeste 0 -- -- 61
2020-03-29 20:00:00 17.1 9 Oeste 15 Oeste 0 -- -- 58
2020-03-29 19:00:00 17.6 9 Oeste 19 Oeste 0 -- -- 58
2020-03-29 18:00:00 18 10 Oeste 18 Oeste 0 -- -- 54
2020-03-29 17:00:00 18.4 9 Oeste 24 Oeste 0 -- -- 56
2020-03-29 16:00:00 18.1 10 Oeste 21 Oeste 0 -- -- 55
2020-03-29 15:00:00 17.2 4 Nordeste 16 Oeste 0 -- -- 60
2020-03-29 14:00:00 17.1 9 Oeste 19 Sudoeste 0 -- -- 60
2020-03-29 13:00:00 16.1 9 Oeste 17 Oeste 0 -- -- 61
2020-03-29 12:00:00 15.4 9 Sudoeste 16 Sudoeste 0 -- -- 65
2020-03-29 11:00:00 13.3 8 Sur 14 Sudoeste 0 -- -- 77
2020-03-29 10:00:00 11.2 10 Sudeste 15 Sudeste 0 -- -- 82
2020-03-29 09:00:00 8.6 4 Sudeste 10 Sudeste 0 -- -- 89
2020-03-29 08:00:00 8.4 4 Sudeste 9 Sur 0 -- -- 88
2020-03-29 07:00:00 8.6 4 Sudeste 9 Sudeste 0 -- -- 88
2020-03-29 06:00:00 9.2 5 Sudeste 11 Sudeste 0 -- -- 86
2020-03-29 05:00:00 9.8 4 Sudeste 8 Sudeste 0 -- -- 85
2020-03-29 03:00:00 10.6 4 Sudeste 9 Sur 0 -- -- 83
2020-03-29 01:00:00 11.4 4 Sur 7 Sudoeste 0 -- -- 80
2020-03-29 00:00:00 11.9 5 Sudoeste 8 Sudoeste 0 -- -- 78
2020-03-28 23:00:00 11.6 4 Sudoeste 17 Sudoeste 0 -- -- 76
2020-03-28 22:00:00 13.3 8 Norte 11 Norte 0 -- -- 68
2020-03-28 21:00:00 13.4 8 Norte 10 Norte 0 -- -- 67
2020-03-28 20:00:00 15 8 Norte 14 Norte 0 -- -- 62
2020-03-28 19:00:00 17.5 9 Noroeste 14 Oeste 0 -- -- 54
2020-03-28 18:00:00 17.9 7 Noroeste 12 Noroeste 0 -- -- 52
2020-03-28 17:00:00 16.9 5 Oeste 13 Nordeste 0 -- -- 55
2020-03-28 16:00:00 16.3 8 Noroeste 17 Norte 0 -- -- 59
2020-03-28 15:00:00 15.6 14 Nordeste 22 Nordeste 0 -- -- 61
2020-03-28 14:00:00 16.3 6 Sur 17 Sudeste 0 -- -- 58
2020-03-28 13:00:00 15.3 4 Sudeste 15 Sudeste 0 -- -- 63
2020-03-28 12:00:00 14.5 5 Este 19 Sudeste 0 -- -- 68
2020-03-28 11:00:00 13.3 9 Sudeste 19 Este 0 -- -- 66
2020-03-28 10:00:00 10.1 7 Este 20 Sudeste 0 -- -- 73
2020-03-28 09:00:00 7.3 8 Este 15 Este 0 -- -- 78
2020-03-28 08:00:00 5 7 Este 13 Este 0 -- -- 85
2020-03-28 07:00:00 4.3 8 Este 11 Nordeste 0 -- -- 87
2020-03-28 06:00:00 5.1 9 Este 14 Nordeste 0 -- -- 83
2020-03-28 05:00:00 5.4 9 Nordeste 17 Nordeste 0 -- -- 83
2020-03-28 04:00:00 5.1 10 Nordeste 12 Nordeste 0 -- -- 84
2020-03-28 03:00:00 7.3 8 Este 20 Sudeste 0 -- -- 76
2020-03-28 02:00:00 8.1 12 Este 18 Este 0 -- -- 72
2020-03-28 01:00:00 8.8 11 Este 17 Este 0 -- -- 70
2020-03-28 00:00:00 9.8 12 Este 20 Este 0 -- -- 71
2020-03-27 23:00:00 9.6 12 Este 17 Este 0 -- -- 75
2020-03-27 22:00:00 10.1 9 Este 14 Este 0 -- -- 74
2020-03-27 21:00:00 11.2 12 Este 20 Este 0 -- -- 70
2020-03-27 20:00:00 12.2 10 Nordeste 17 Nordeste 0 -- -- 66
2020-03-27 19:00:00 14.3 11 Nordeste 21 Norte 0 -- -- 60
2020-03-27 18:00:00 15.1 13 Nordeste 21 Nordeste 0 -- -- 60
2020-03-27 17:00:00 15.1 9 Nordeste 20 Norte 0 -- -- 60
2020-03-27 16:00:00 15.7 6 Norte 16 Este 0 -- -- 60
2020-03-27 15:00:00 14 4 Este 13 Noroeste 0 -- -- 68
2020-03-27 14:00:00 12.2 6 Norte 12 Norte 0 -- -- 72
2020-03-27 13:00:00 11.7 7 Norte 13 Noroeste 0 -- -- 74
2020-03-27 12:00:00 10.9 4 Oeste 13 Sudoeste 0 -- -- 75
2020-03-27 11:00:00 9.9 5 Noroeste 10 Oeste 0 -- -- 82
2020-03-27 10:00:00 8.7 5 Norte 13 Norte 0 -- -- 86
2020-03-27 09:00:00 8 4 Norte 10 Norte 0 -- -- 92
2020-03-27 08:00:00 7.3 6 Oeste 9 Oeste 0 -- -- 96
2020-03-27 07:00:00 6.9 3 Oeste 8 Oeste 0 -- -- 96
2020-03-27 06:00:00 6.6 3 Oeste 9 Oeste 0 -- -- 95
2020-03-27 05:00:00 6.7 5 Oeste 10 Oeste 0 -- -- 95
2020-03-27 04:00:00 6.8 7 Oeste 11 Oeste 0 -- -- 95
2020-03-27 03:00:00 6.4 4 Oeste 8 Oeste 0 -- -- 92
2020-03-27 02:00:00 7.4 4 Noroeste 10 Noroeste 0 -- -- 90
2020-03-27 01:00:00 8 6 Oeste 9 Noroeste 0 -- -- 89
2020-03-27 00:00:00 9 7 Noroeste 16 Oeste 0 -- -- 86
2020-03-26 23:00:00 10.3 10 Noroeste 16 Noroeste 0 -- -- 81
2020-03-26 22:00:00 11.5 9 Noroeste 17 Noroeste 0 -- -- 76
2020-03-26 21:00:00 12.9 13 Noroeste 24 Noroeste 0 -- -- 70
2020-03-26 20:00:00 14.4 13 Noroeste 28 Noroeste 0 -- -- 64
2020-03-26 19:00:00 17.1 19 Noroeste 32 Noroeste 0 -- -- 54
2020-03-26 18:00:00 18.5 21 Noroeste 36 Noroeste 0 -- -- 52
2020-03-26 17:00:00 19.1 22 Noroeste 37 Noroeste 0 -- -- 49
2020-03-26 16:00:00 19.3 22 Noroeste 35 Noroeste 0 -- -- 48
2020-03-26 15:00:00 19.1 21 Noroeste 37 Noroeste 0 -- -- 50
2020-03-26 14:00:00 18.2 19 Noroeste 31 Oeste 0 -- -- 54
2020-03-26 13:00:00 -- -- -- -- -- -- -- -- --
2020-03-26 12:00:00 -- -- -- -- -- -- -- -- --
2020-03-26 11:00:00 -- -- -- -- -- -- -- -- --
2020-03-26 10:00:00 -- -- -- -- -- -- -- -- --
2020-03-26 09:00:00 -- -- -- -- -- -- -- -- --
2020-03-26 08:00:00 -- -- -- -- -- -- -- -- --
2020-03-26 07:00:00 -- -- -- -- -- -- -- -- --
2020-03-26 06:00:00 -- -- -- -- -- -- -- -- --
2020-03-26 05:00:00 -- -- -- -- -- -- -- -- --
2020-03-26 04:00:00 -- -- -- -- -- -- -- -- --
2020-03-26 03:00:00 -- -- -- -- -- -- -- -- --
2020-03-26 02:00:00 -- -- -- -- -- -- -- -- --
2020-03-26 01:00:00 -- -- -- -- -- -- -- -- --
2020-03-26 00:00:00 -- -- -- -- -- -- -- -- --
2020-03-25 23:00:00 -- -- -- -- -- -- -- -- --
2020-03-25 22:00:00 -- -- -- -- -- -- -- -- --
2020-03-25 21:00:00 -- -- -- -- -- -- -- -- --
2020-03-25 20:00:00 -- -- -- -- -- -- -- -- --
2020-03-25 19:00:00 -- -- -- -- -- -- -- -- --
2020-03-25 18:00:00 -- -- -- -- -- -- -- -- --
2020-03-25 17:00:00 -- -- -- -- -- -- -- -- --
2020-03-25 16:00:00 -- -- -- -- -- -- -- -- --
2020-03-25 15:00:00 -- -- -- -- -- -- -- -- --
2020-03-25 14:00:00 -- -- -- -- -- -- -- -- --
2020-03-25 13:00:00 -- -- -- -- -- -- -- -- --
2020-03-25 12:00:00 -- -- -- -- -- -- -- -- --
2020-03-25 11:00:00 -- -- -- -- -- -- -- -- --
2020-03-25 10:00:00 -- -- -- -- -- -- -- -- --
2020-03-25 09:00:00 -- -- -- -- -- -- -- -- --
2020-03-25 08:00:00 -- -- -- -- -- -- -- -- --
2020-03-25 07:00:00 -- -- -- -- -- -- -- -- --
2020-03-25 06:00:00 -- -- -- -- -- -- -- -- --
2020-03-25 05:00:00 -- -- -- -- -- -- -- -- --
2020-03-25 04:00:00 -- -- -- -- -- -- -- -- --
2020-03-25 03:00:00 -- -- -- -- -- -- -- -- --
2020-03-25 02:00:00 -- -- -- -- -- -- -- -- --
2020-03-25 01:00:00 -- -- -- -- -- -- -- -- --
2020-03-25 00:00:00 -- -- -- -- -- -- -- -- --
2020-03-24 23:00:00 -- -- -- -- -- -- -- -- --
2020-03-24 22:00:00 -- -- -- -- -- -- -- -- --
2020-03-24 21:00:00 -- -- -- -- -- -- -- -- --
2020-03-24 20:00:00 -- -- -- -- -- -- -- -- --
2020-03-24 19:00:00 -- -- -- -- -- -- -- -- --
2020-03-24 18:00:00 -- -- -- -- -- -- -- -- --
2020-03-24 17:00:00 -- -- -- -- -- -- -- -- --
2020-03-24 16:00:00 -- -- -- -- -- -- -- -- --
2020-03-24 15:00:00 -- -- -- -- -- -- -- -- --
2020-03-24 14:00:00 -- -- -- -- -- -- -- -- --
2020-03-24 13:00:00 -- -- -- -- -- -- -- -- --
2020-03-24 12:00:00 -- -- -- -- -- -- -- -- --
2020-03-24 11:00:00 -- -- -- -- -- -- -- -- --
2020-03-24 10:00:00 -- -- -- -- -- -- -- -- --
2020-03-24 09:00:00 -- -- -- -- -- -- -- -- --
2020-03-24 08:00:00 -- -- -- -- -- -- -- -- --
2020-03-24 07:00:00 -- -- -- -- -- -- -- -- --
2020-03-24 06:00:00 -- -- -- -- -- -- -- -- --
2020-03-24 05:00:00 -- -- -- -- -- -- -- -- --
2020-03-24 04:00:00 -- -- -- -- -- -- -- -- --
2020-03-24 03:00:00 -- -- -- -- -- -- -- -- --
2020-03-24 02:00:00 -- -- -- -- -- -- -- -- --
2020-03-24 01:00:00 -- -- -- -- -- -- -- -- --
2020-03-24 00:00:00 -- -- -- -- -- -- -- -- --
2020-03-23 23:00:00 -- -- -- -- -- -- -- -- --
2020-03-23 22:00:00 -- -- -- -- -- -- -- -- --
2020-03-23 21:00:00 -- -- -- -- -- -- -- -- --
2020-03-23 20:00:00 -- -- -- -- -- -- -- -- --
2020-03-23 19:00:00 -- -- -- -- -- -- -- -- --
2020-03-23 18:00:00 -- -- -- -- -- -- -- -- --
2020-03-23 17:00:00 -- -- -- -- -- -- -- -- --
2020-03-23 16:00:00 -- -- -- -- -- -- -- -- --
2020-03-23 15:00:00 -- -- -- -- -- -- -- -- --
2020-03-23 14:00:00 16.1 17 Este 33 Este 0 -- -- 56
2020-03-23 13:00:00 16 18 Este -- -- -- -- -- 57
2020-03-23 12:00:00 15.9 17 Este -- -- -- -- -- 55
2020-03-23 11:00:00 -- -- -- -- -- -- -- -- --
2020-03-23 10:00:00 -- -- -- -- -- -- -- -- --
2020-03-23 09:00:00 -- -- -- -- -- -- -- -- --
2020-03-23 08:00:00 -- -- -- -- -- -- -- -- --
2020-03-23 07:00:00 -- -- -- -- -- -- -- -- --
2020-03-23 06:00:00 -- -- -- -- -- -- -- -- --
2020-03-23 05:00:00 -- -- -- -- -- -- -- -- --
2020-03-23 04:00:00 -- -- -- -- -- -- -- -- --
2020-03-23 03:00:00 -- -- -- -- -- -- -- -- --
2020-03-23 02:00:00 -- -- -- -- -- -- -- -- --
2020-03-23 01:00:00 -- -- -- -- -- -- -- -- --
2020-03-23 00:00:00 -- -- -- -- -- -- -- -- --
2020-03-22 23:00:00 -- -- -- -- -- -- -- -- --
2020-03-22 22:00:00 -- -- -- -- -- -- -- -- --
2020-03-22 21:00:00 -- -- -- -- -- -- -- -- --
2020-03-22 20:00:00 -- -- -- -- -- -- -- -- --
2020-03-22 19:00:00 -- -- -- -- -- -- -- -- --
2020-03-22 18:00:00 -- -- -- -- -- -- -- -- --
2020-03-22 17:00:00 -- -- -- -- -- -- -- -- --
2020-03-22 16:00:00 -- -- -- -- -- -- -- -- --
2020-03-22 15:00:00 -- -- -- -- -- -- -- -- --
2020-03-22 14:00:00 -- -- -- -- -- -- -- -- --
2020-03-22 13:00:00 -- -- -- -- -- -- -- -- --
2020-03-22 12:00:00 -- -- -- -- -- -- -- -- --
2020-03-22 11:00:00 -- -- -- -- -- -- -- -- --
2020-03-22 10:00:00 -- -- -- -- -- -- -- -- --
2020-03-22 09:00:00 -- -- -- -- -- -- -- -- --
2020-03-22 08:00:00 -- -- -- -- -- -- -- -- --
2020-03-22 07:00:00 -- -- -- -- -- -- -- -- --
2020-03-22 06:00:00 -- -- -- -- -- -- -- -- --
2020-03-22 05:00:00 -- -- -- -- -- -- -- -- --
2020-03-22 04:00:00 -- -- -- -- -- -- -- -- --
2020-03-22 03:00:00 -- -- -- -- -- -- -- -- --
2020-03-22 02:00:00 -- -- -- -- -- -- -- -- --
2020-03-22 01:00:00 -- -- -- -- -- -- -- -- --
2020-03-22 00:00:00 -- -- -- -- -- -- -- -- --
2020-03-21 23:00:00 -- -- -- -- -- -- -- -- --
2020-03-21 22:00:00 -- -- -- -- -- -- -- -- --
2020-03-21 21:00:00 -- -- -- -- -- -- -- -- --
2020-03-21 20:00:00 -- -- -- -- -- -- -- -- --
2020-03-21 19:00:00 -- -- -- -- -- -- -- -- --
2020-03-21 18:00:00 -- -- -- -- -- -- -- -- --
2020-03-21 17:00:00 -- -- -- -- -- -- -- -- --
2020-03-21 16:00:00 -- -- -- -- -- -- -- -- --
2020-03-21 15:00:00 -- -- -- -- -- -- -- -- --
2020-03-21 14:00:00 14.6 21 Sur 35 Sudoeste 0 -- -- 61
2020-03-21 13:00:00 13.7 17 Sur 28 Sur 0 -- -- 71
2020-03-21 12:00:00 12.7 20 Sur 29 Sudoeste 0 -- -- 72
2020-03-21 11:00:00 11.6 13 Sur 24 Sur 0 -- -- 78
2020-03-21 10:00:00 10.6 8 Sur 16 Sur 0 -- -- 89
2020-03-21 09:00:00 9.3 10 Sur 15 Sur 0 -- -- 98
2020-03-21 08:00:00 8.1 9 Sur 17 Sur 0 -- -- 98
2020-03-21 07:00:00 8.5 12 Sudoeste 17 Sudoeste 0 -- -- 97
2020-03-21 06:00:00 8.4 8 Sudoeste 21 Oeste 0 -- -- 98
2020-03-21 05:00:00 8.6 9 Sudoeste 17 Sudoeste 0 -- -- 98
2020-03-21 04:00:00 8.6 9 Sudoeste 17 Sudoeste 0 -- -- 97
2020-03-21 03:00:00 9 11 Oeste 21 Sudoeste 0 -- -- 98
2020-03-21 02:00:00 9.3 9 Sudoeste 16 Sudoeste 0 -- -- 97
2020-03-21 01:00:00 9.2 7 Oeste 16 Oeste 0.4 -- -- 97
2020-03-21 00:00:00 9.3 11 Oeste 16 Noroeste 3.4 -- -- 97
2020-03-20 23:00:00 9.5 7 Oeste 18 Oeste 3 -- -- 97
2020-03-20 22:00:00 10.1 12 Oeste 18 Oeste 2.2 -- -- 96
2020-03-20 21:00:00 10.6 8 Nordeste 12 Nordeste 6.6 -- -- 96
2020-03-20 20:00:00 10.7 9 Nordeste 15 Norte 8.8 -- -- 96
2020-03-20 19:00:00 10.8 9 Noroeste 17 Oeste 3.8 -- -- 95
2020-03-20 18:00:00 11.2 12 Noroeste 22 Noroeste 0.4 -- -- 95
2020-03-20 17:00:00 12.1 16 Oeste 22 Oeste 4 -- -- 93
2020-03-20 16:00:00 13.3 8 Sudoeste 12 Sudoeste 1.4 -- -- 93
2020-03-20 15:00:00 13.8 4 Sudoeste 11 Sudoeste 2 -- -- 90
2020-03-20 14:00:00 14.7 5 Sudoeste 14 Sudoeste 0 -- -- 79
2020-03-20 13:00:00 14.6 8 Sudoeste 19 Sudoeste 0 -- -- 81
2020-03-20 12:00:00 13.9 11 Sudoeste 23 Oeste 0 -- -- 84
2020-03-20 11:00:00 13.7 12 Sudoeste 19 Sudoeste 0 -- -- 87
2020-03-20 10:00:00 13.2 11 Sudoeste 16 Sudoeste 0 -- -- 88
2020-03-20 09:00:00 13 10 Sudoeste 17 Sudoeste 0 -- -- 89
2020-03-20 08:00:00 12.6 8 Sudoeste 14 Sudoeste 0 -- -- 90
2020-03-20 07:00:00 12.5 10 Sur 16 Sur 0 -- -- 91
2020-03-20 06:00:00 12.6 9 Sudoeste 17 Sudoeste 0 -- -- 89
2020-03-20 05:00:00 13.1 11 Sudoeste 22 Sudoeste 0 -- -- 86
2020-03-20 04:00:00 13.4 14 Sur 20 Sur 0 -- -- 84
2020-03-20 03:00:00 13.7 6 Sudoeste 10 Sudoeste 0 -- -- 81
2020-03-20 02:00:00 14.3 5 Sudoeste 10 Sudoeste 0 -- -- 78
2020-03-20 01:00:00 14.8 7 Sudoeste 10 Sur 0 -- -- 77
2020-03-20 00:00:00 14.9 4 Sur 8 Sur 0 -- -- 77
2020-03-19 23:00:00 15.2 4 Sudeste 5 Sudeste 0 -- -- 76
2020-03-19 22:00:00 16.1 0 Calma 10 Oeste 0 -- -- 72
2020-03-19 21:00:00 16.5 8 Oeste 11 Oeste 0 -- -- 70
2020-03-19 20:00:00 17.8 10 Sudoeste 16 Sur 0 -- -- 65
2020-03-19 19:00:00 20.1 3 Sudeste 10 Sudeste 0 -- -- 48
2020-03-19 18:00:00 20.5 5 Sudeste 13 Sudeste 0 -- -- 46
2020-03-19 17:00:00 21.1 6 Este 20 Sudeste 0 -- -- 45
2020-03-19 16:00:00 20.6 7 Este 17 Este 0 -- -- 51
2020-03-19 15:00:00 20.5 10 Nordeste 23 Este 0 -- -- 53
2020-03-19 14:00:00 20.3 7 Sur 18 Sur 0 -- -- 54
2020-03-19 13:00:00 19.5 6 Este 16 Nordeste 0 -- -- 56
2020-03-19 12:00:00 17.6 6 Norte 10 Norte 0 -- -- 66
2020-03-19 11:00:00 15.5 6 Sudoeste 13 Sudeste 0 -- -- 76
2020-03-19 10:00:00 15.5 8 Este 20 Este 0 -- -- 74
2020-03-19 09:00:00 11.7 11 Este 22 Este 0 -- -- 86
2020-03-19 08:00:00 11.2 15 Este 20 Nordeste 0 -- -- 87
2020-03-19 07:00:00 11.1 11 Este 15 Este 0 -- -- 88
2020-03-19 06:00:00 10.4 8 Este 10 Este 0 -- -- 88
2020-03-19 05:00:00 11.2 0 Calma 7 Sur 0 -- -- 83
2020-03-19 04:00:00 11.1 3 Sudoeste 15 Oeste 0 -- -- 80
2020-03-19 03:00:00 12.7 9 Sudeste 16 Sudeste 0 -- -- 74
2020-03-19 02:00:00 12.8 7 Sudeste 10 Sudeste 0 -- -- 74
2020-03-19 01:00:00 14.5 5 Nordeste 23 Este 0 -- -- 67
2020-03-19 00:00:00 15.8 15 Este 23 Este 0 -- -- 63
2020-03-18 23:00:00 16.3 13 Este 26 Este 0 -- -- 62
2020-03-18 22:00:00 16.9 17 Nordeste 29 Nordeste 0 -- -- 60
2020-03-18 21:00:00 17.3 16 Nordeste 23 Nordeste 0 -- -- 58
2020-03-18 20:00:00 18.9 9 Nordeste 15 Este 0 -- -- 54
2020-03-18 19:00:00 20.4 10 Nordeste 28 Este 0 -- -- 50
2020-03-18 18:00:00 21.5 18 Este 32 Este 0 -- -- 46
2020-03-18 17:00:00 22 18 Nordeste 33 Este 0 -- -- 46
2020-03-18 16:00:00 22.5 18 Nordeste 32 Nordeste 0 -- -- 47
2020-03-18 15:00:00 21.6 17 Nordeste 28 Este 0 -- -- 49
2020-03-18 14:00:00 21 18 Nordeste 30 Nordeste 0 -- -- 52
2020-03-18 13:00:00 18.9 21 Este 32 Este 0 -- -- 56
2020-03-18 12:00:00 17.7 21 Nordeste 28 Este 0 -- -- 59
2020-03-18 11:00:00 15.9 18 Nordeste 30 Nordeste 0 -- -- 66
2020-03-18 10:00:00 13.6 22 Nordeste 31 Nordeste 0 -- -- 72
2020-03-18 09:00:00 12.9 20 Nordeste 29 Nordeste 0 -- -- 74
2020-03-18 08:00:00 11.3 13 Nordeste 18 Nordeste 0 -- -- 82
2020-03-18 07:00:00 12.2 14 Nordeste 23 Este 0 -- -- 79
2020-03-18 06:00:00 13.6 15 Este 30 Este 0 -- -- 76
2020-03-18 05:00:00 13.3 20 Este 32 Este 0 -- -- 78
2020-03-18 04:00:00 12.4 18 Nordeste 26 Nordeste 0 -- -- 81
2020-03-18 03:00:00 12.2 8 Nordeste 21 Nordeste 0 -- -- 78
2020-03-18 02:00:00 12.4 13 Nordeste 22 Nordeste 0 -- -- 70
2020-03-18 01:00:00 12.3 15 Nordeste 29 Nordeste 0 -- -- 59
2020-03-18 00:00:00 12.3 14 Nordeste 23 Nordeste 0 -- -- 56
2020-03-17 23:00:00 12.9 14 Nordeste 29 Nordeste 0 -- -- 53
2020-03-17 22:00:00 13.9 8 Este 23 Nordeste 0 -- -- 52
2020-03-17 21:00:00 14.5 11 Este 17 Nordeste 0 -- -- 47
2020-03-17 20:00:00 15.4 11 Este 27 Este 0 -- -- 44
2020-03-17 19:00:00 16.6 12 Este 28 Este 0 -- -- 40
2020-03-17 18:00:00 17.3 17 Sudeste 33 Sudeste 0 -- -- 39
2020-03-17 17:00:00 16.9 17 Este 34 Sudeste 0 -- -- 43
2020-03-17 16:00:00 16.4 18 Sudeste 40 Sudeste 0 -- -- 47
2020-03-17 15:00:00 15 18 Sudeste 37 Sudeste 0 -- -- 50
2020-03-17 14:00:00 14.3 26 Sudeste 49 Sudeste 0 -- -- 52
2020-03-17 13:00:00 12.9 23 Sudeste 43 Sudeste 0 -- -- 59
2020-03-17 12:00:00 12.1 24 Este 50 Sudeste 0 -- -- 65
2020-03-17 11:00:00 10.5 23 Este 40 Este 0 -- -- 71
2020-03-17 10:00:00 7.3 13 Nordeste 30 Nordeste 0 -- -- 88
2020-03-17 09:00:00 6.9 17 Nordeste 30 Este 0 -- -- 88
2020-03-17 08:00:00 4.9 17 Nordeste 25 Nordeste 0 -- -- 91
2020-03-17 07:00:00 5 10 Nordeste 24 Nordeste 0 -- -- 90
2020-03-17 06:00:00 5.2 15 Nordeste 23 Nordeste 0 -- -- 91
2020-03-17 05:00:00 5.3 11 Norte 24 Nordeste 0 -- -- 92
2020-03-17 04:00:00 5.1 12 Nordeste 19 Nordeste 0 -- -- 90
2020-03-17 03:00:00 5.9 10 Nordeste 21 Nordeste 0 -- -- 90
2020-03-17 02:00:00 6.8 10 Nordeste 14 Nordeste 0 -- -- 92
2020-03-17 01:00:00 7 5 Nordeste 21 Nordeste 0 -- -- 92
2020-03-17 00:00:00 7.7 13 Nordeste 23 Nordeste 0 -- -- 92
2020-03-16 23:00:00 7.7 14 Norte 24 Norte 1.4 -- -- 91
2020-03-16 22:00:00 7.7 7 Nordeste 32 Nordeste 1.4 -- -- 91
2020-03-16 21:00:00 8.5 15 Nordeste 24 Nordeste 0.8 -- -- 86
2020-03-16 20:00:00 9.6 3 Nordeste 25 Nordeste 0 -- -- 78
2020-03-16 19:00:00 10.6 18 Nordeste 30 Nordeste 0 -- -- 68
2020-03-16 18:00:00 12.1 16 Norte 33 Nordeste 0 -- -- 59
2020-03-16 17:00:00 11.3 15 Nordeste 27 Este 0 -- -- 64
2020-03-16 16:00:00 9.9 17 Norte 53 Nordeste 0.4 -- -- 74
2020-03-16 15:00:00 13.9 23 Norte 39 Norte 0 -- -- 45
2020-03-16 14:00:00 13.5 24 Norte 44 Norte 0 -- -- 46
2020-03-16 13:00:00 13.3 26 Norte 41 Norte 0 -- -- 46
2020-03-16 12:00:00 11.8 24 Norte 43 Norte 0 -- -- 50
2020-03-16 11:00:00 10.3 25 Norte 38 Norte 0 -- -- 57
2020-03-16 10:00:00 8.4 25 Norte 37 Norte 0 -- -- 65
2020-03-16 09:00:00 6.3 18 Norte 27 Noroeste 0 -- -- 77
2020-03-16 08:00:00 4.4 9 Norte 19 Norte 0 -- -- 84
2020-03-16 07:00:00 4.7 11 Noroeste 24 Noroeste 0 -- -- 85
2020-03-16 06:00:00 4.8 12 Norte 20 Norte 0 -- -- 86
2020-03-16 05:00:00 4.5 8 Noroeste 13 Noroeste 0 -- -- 87
2020-03-16 04:00:00 5.1 5 Norte 16 Noroeste 0 -- -- 83
2020-03-16 03:00:00 5.6 8 Norte 18 Norte 0 -- -- 81
2020-03-16 02:00:00 6.7 16 Norte 26 Norte 0 -- -- 76
2020-03-16 01:00:00 7.2 13 Norte 24 Norte 0 -- -- 76
2020-03-16 00:00:00 8.2 16 Norte 33 Norte 0 -- -- 73
2020-03-15 23:00:00 9.3 18 Norte 45 Norte 0 -- -- 72
2020-03-15 22:00:00 10.6 18 Norte 41 Norte 0 -- -- 76
2020-03-15 21:00:00 13.4 29 Norte 44 Noroeste 0 -- -- 69
2020-03-15 20:00:00 15.1 18 Noroeste 39 Noroeste 0 -- -- 58
2020-03-15 19:00:00 17 21 Noroeste 29 Noroeste 0 -- -- 63
2020-03-15 18:00:00 18.2 21 Noroeste 39 Noroeste 0 -- -- 63
2020-03-15 17:00:00 18.6 20 Noroeste 41 Noroeste 0 -- -- 64
2020-03-15 16:00:00 19.9 18 Oeste 28 Oeste 0 -- -- 61
2020-03-15 15:00:00 19.8 23 Oeste 34 Oeste 0 -- -- 61
2020-03-15 14:00:00 19.4 15 Oeste 29 Oeste 0 -- -- 67
2020-03-15 13:00:00 18 16 Oeste 25 Oeste 0 -- -- 70
2020-03-15 12:00:00 17.2 15 Oeste 26 Sudoeste 0 -- -- 73
2020-03-15 11:00:00 15.2 13 Oeste 19 Oeste 0 -- -- 82
2020-03-15 10:00:00 13 8 Oeste 12 Oeste 0 -- -- 90
2020-03-15 09:00:00 11.2 3 Sur 8 Sudeste 0 -- -- 94
2020-03-15 08:00:00 9.9 6 Sur 9 Sudeste 0 -- -- 94
2020-03-15 07:00:00 10.3 4 Sur 9 Sudeste 0 -- -- 93
2020-03-15 06:00:00 11 4 Sudeste 6 Sudeste 0 -- -- 92
2020-03-15 05:00:00 11.2 2 Sur 7 Sudeste 0 -- -- 92
2020-03-15 04:00:00 11.5 5 Sudeste 8 Sur 0 -- -- 90
2020-03-15 03:00:00 12.1 3 Sur 8 Sudeste 0 -- -- 88
2020-03-15 02:00:00 12.8 4 Sur 9 Sudoeste 0 -- -- 85
2020-03-15 01:00:00 13.8 6 Sudoeste 9 Sudoeste 0 -- -- 81
2020-03-15 00:00:00 14 3 Sur 7 Sur 0 -- -- 80
2020-03-14 23:00:00 15.1 0 Calma 3 Sudeste 0 -- -- 74
2020-03-14 22:00:00 16.5 2 Sudeste 4 Sudeste 0 -- -- 68
2020-03-14 21:00:00 17.7 0 Calma 6 Oeste 0 -- -- 64
2020-03-14 20:00:00 19.3 5 Oeste 9 Oeste 0 -- -- 60
2020-03-14 19:00:00 21.7 6 Oeste 13 Oeste 0 -- -- 55
2020-03-14 18:00:00 22.8 8 Oeste 14 Oeste 0 -- -- 53
2020-03-14 17:00:00 22.8 8 Oeste 18 Oeste 0 -- -- 53
2020-03-14 16:00:00 22.2 10 Oeste 19 Oeste 0 -- -- 56
2020-03-14 15:00:00 22.2 10 Oeste 21 Noroeste 0 -- -- 57
2020-03-14 14:00:00 21.2 8 Oeste 19 Oeste 0 -- -- 60
2020-03-14 13:00:00 20.3 8 Noroeste 14 Oeste 0 -- -- 62
2020-03-14 12:00:00 18.8 5 Noroeste 11 Oeste 0 -- -- 64
2020-03-14 11:00:00 17.5 4 Oeste 9 Sudoeste 0 -- -- 75
2020-03-14 10:00:00 14.5 3 Este 8 Sudeste 0 -- -- 88
2020-03-14 09:00:00 10.6 0 Calma 6 Este 0 -- -- 97
2020-03-14 08:00:00 9.8 4 Nordeste 6 Norte 0 -- -- 96
2020-03-14 07:00:00 9.2 2 Sudeste 9 Sudeste 0 -- -- 96
2020-03-14 06:00:00 9.2 0 Calma 5 Sudeste 0 -- -- 96
2020-03-14 05:00:00 9.5 3 Este 6 Este 0 -- -- 95
2020-03-14 04:00:00 9.5 0 Calma 3 Sur 0 -- -- 95
2020-03-14 03:00:00 9.8 0 Calma 6 Este 0 -- -- 94
2020-03-14 02:00:00 10.7 3 Sudeste 10 Norte 0 -- -- 92
2020-03-14 01:00:00 10.8 3 Norte 4 Noroeste 0 -- -- 93
2020-03-14 00:00:00 11.5 0 Calma 4 Nordeste 0 -- -- 91
2020-03-13 23:00:00 12.3 4 Este 9 Sudeste 0 -- -- 90
2020-03-13 22:00:00 12.4 3 Sudeste 10 Este 0 -- -- 88
2020-03-13 21:00:00 13.3 6 Este 12 Este 0 -- -- 86
2020-03-13 20:00:00 14.1 2 Este 9 Este 0 -- -- 82
2020-03-13 19:00:00 15.7 5 Nordeste 11 Nordeste 0 -- -- 78
2020-03-13 18:00:00 16.3 6 Norte 14 Norte 0 -- -- 75
2020-03-13 17:00:00 15.8 9 Noroeste 19 Norte 0 -- -- 76
2020-03-13 16:00:00 14.4 10 Norte 17 Noroeste 0 -- -- 80
2020-03-13 15:00:00 13.5 10 Oeste 19 Oeste 0 -- -- 83
2020-03-13 14:00:00 12.9 6 Oeste 13 Oeste 0 -- -- 84
2020-03-13 13:00:00 11.7 7 Oeste 13 Oeste 0 -- -- 89
2020-03-13 12:00:00 11 6 Oeste 12 Noroeste 0 -- -- 92
2020-03-13 11:00:00 10.5 6 Oeste 13 Oeste 0 -- -- 94
2020-03-13 10:00:00 10 8 Sudoeste 13 Oeste 0 -- -- 95
2020-03-13 09:00:00 9.8 8 Oeste 13 Oeste 0 -- -- 95
2020-03-13 08:00:00 9.8 5 Noroeste 10 Noroeste 0 -- -- 96
2020-03-13 07:00:00 9.8 4 Oeste 7 Oeste 0 -- -- 95
2020-03-13 06:00:00 9.8 3 Oeste 6 Noroeste 0 -- -- 95
2020-03-13 05:00:00 10.1 5 Noroeste 10 Noroeste 0 -- -- 94
2020-03-13 04:00:00 10.4 6 Noroeste 12 Noroeste 0 -- -- 93
2020-03-13 03:00:00 11.3 4 Noroeste 8 Noroeste 0 -- -- 92
2020-03-13 02:00:00 12.5 2 Sudoeste 5 Oeste 0 -- -- 89
2020-03-13 01:00:00 13.5 3 Sudoeste 7 Norte 0 -- -- 86
2020-03-13 00:00:00 14.7 3 Norte 6 Noroeste 0 -- -- 82
2020-03-12 23:00:00 15.7 2 Oeste 6 Oeste 0 -- -- 76
2020-03-12 22:00:00 16.6 2 Norte 9 Norte 0 -- -- 72
2020-03-12 21:00:00 18 6 Norte 10 Noroeste 0 -- -- 66
2020-03-12 20:00:00 19.6 6 Noroeste 12 Noroeste 0 -- -- 61
2020-03-12 19:00:00 21.1 5 Sudoeste 13 Oeste 0 -- -- 58
2020-03-12 18:00:00 22.1 10 Oeste 19 Sudoeste 0 -- -- 54
2020-03-12 17:00:00 22.4 12 Oeste 23 Oeste 0 -- -- 54
2020-03-12 16:00:00 22.5 14 Oeste 29 Oeste 0 -- -- 48
2020-03-12 15:00:00 21.5 17 Oeste 32 Oeste 0 -- -- 55
2020-03-12 14:00:00 21.7 21 Oeste 35 Oeste 0 -- -- 49
2020-03-12 13:00:00 19 12 Oeste 17 Oeste 0 -- -- 63
2020-03-12 12:00:00 16.4 12 Oeste 18 Oeste 0 -- -- 73
2020-03-12 11:00:00 17.2 8 Oeste 14 Sudeste 0 -- -- 66
2020-03-12 10:00:00 17 7 Sudeste 17 Este 0 -- -- 60
2020-03-12 09:00:00 14.7 9 Sudeste 13 Sudeste 0 -- -- 67
2020-03-12 08:00:00 13.2 3 Sudeste 7 Sudeste 0 -- -- 73
2020-03-12 07:00:00 14.4 4 Sudeste 6 Sudeste 0 -- -- 67
2020-03-12 06:00:00 14.1 0 Calma 9 Este 0 -- -- 72
2020-03-12 05:00:00 14.8 3 Este 14 Este 0 -- -- 70
2020-03-12 04:00:00 15.2 4 Este 9 Este 0 -- -- 73
2020-03-12 03:00:00 16.2 2 Sudeste 6 Sudeste 0 -- -- 70
2020-03-12 02:00:00 17.7 0 Calma 10 Sur 0 -- -- 65
2020-03-12 01:00:00 18 9 Sur 12 Sur 0 -- -- 70
2020-03-12 00:00:00 18.2 6 Sur 10 Sur 0 -- -- 72
2020-03-11 23:00:00 18.8 4 Sudeste 8 Sudeste 0 -- -- 68
2020-03-11 22:00:00 19.2 4 Sudeste 20 Este 0 -- -- 63
2020-03-11 21:00:00 21.1 13 Este 19 Este 0 -- -- 56
2020-03-11 20:00:00 21.5 13 Este 20 Nordeste 0 -- -- 58
2020-03-11 19:00:00 21.8 10 Nordeste 21 Nordeste 0 -- -- 60
2020-03-11 18:00:00 23 14 Nordeste 22 Nordeste 0 -- -- 55
2020-03-11 17:00:00 23.9 17 Norte 23 Norte 0 -- -- 53
2020-03-11 16:00:00 23.9 14 Norte 22 Norte 0 -- -- 55
2020-03-11 15:00:00 26.2 14 Norte 28 Sudoeste 0 -- -- 51
2020-03-11 14:00:00 28.7 10 Sudeste 16 Sur 0 -- -- 31
2020-03-11 13:00:00 28.1 11 Sur 17 Sur 0 -- -- 33
2020-03-11 12:00:00 25.3 7 Este 15 Este 0 -- -- 42
2020-03-11 11:00:00 21.8 3 Oeste 9 Noroeste 0 -- -- 53
2020-03-11 10:00:00 17.9 2 Sudeste 8 Este 0 -- -- 61
2020-03-11 09:00:00 14.5 3 Sudeste 5 Sudeste 0 -- -- 67
2020-03-11 08:00:00 11.1 0 Calma 4 Nordeste 0 -- -- 75
2020-03-11 07:00:00 11.8 0 Calma 2 Este 0 -- -- 72
2020-03-11 06:00:00 11.8 0 Calma 4 Nordeste 0 -- -- 72
2020-03-11 05:00:00 12.7 0 Calma 4 Noroeste 0 -- -- 68
2020-03-11 04:00:00 13.7 0 Calma 4 Sur 0 -- -- 65
2020-03-11 03:00:00 14.9 4 Sur 15 Este 0 -- -- 61
2020-03-11 02:00:00 17.3 14 Este 19 Este 0 -- -- 52
2020-03-11 01:00:00 17.3 11 Este 15 Este 0 -- -- 53
2020-03-11 00:00:00 16.6 12 Este 20 Este 0 -- -- 57
2020-03-10 23:00:00 17.6 13 Este 21 Este 0 -- -- 54
2020-03-10 22:00:00 18.9 17 Este 21 Este 0 -- -- 50
2020-03-10 21:00:00 20 17 Nordeste 21 Nordeste 0 -- -- 48
2020-03-10 20:00:00 20.3 12 Nordeste 15 Nordeste 0 -- -- 52
2020-03-10 19:00:00 24.1 9 Nordeste 15 Nordeste 0 -- -- 42
2020-03-10 18:00:00 25.7 12 Nordeste 17 Nordeste 0 -- -- 41
2020-03-10 17:00:00 26.7 6 Nordeste 24 Este 0 -- -- 38
2020-03-10 16:00:00 26.9 6 Este 13 Este 0 -- -- 33
2020-03-10 15:00:00 27.1 5 Sudeste 14 Sudoeste 0 -- -- 30
2020-03-10 14:00:00 25.5 4 Este 16 Sudeste 0 -- -- 34
2020-03-10 13:00:00 24.2 8 Sudeste 14 Este 0 -- -- 36
2020-03-10 12:00:00 20.9 8 Sudeste 16 Este 0 -- -- 48
2020-03-10 11:00:00 16.6 4 Sudeste 13 Sudeste 0 -- -- 56
2020-03-10 10:00:00 12.4 4 Oeste 8 Oeste 0 -- -- 75
2020-03-10 09:00:00 10.1 0 Calma 4 Sur 0 -- -- 79
2020-03-10 08:00:00 9.7 3 Noroeste 19 Este 0 -- -- 75
2020-03-10 07:00:00 9.6 5 Este 23 Este 0 -- -- 77
2020-03-10 06:00:00 9.6 13 Este 21 Este 0 -- -- 79
2020-03-10 05:00:00 9.7 15 Este 18 Este 0 -- -- 86
2020-03-10 04:00:00 8.2 8 Este 10 Nordeste 0 -- -- 90
2020-03-10 03:00:00 8.9 0 Calma 8 Norte 0 -- -- 87
2020-03-10 02:00:00 9.4 0 Calma 5 Sur 0 -- -- 85
2020-03-10 01:00:00 11 4 Sur 20 Nordeste 0 -- -- 76
2020-03-10 00:00:00 11.8 14 Nordeste 18 Nordeste 0 -- -- 74
2020-03-09 23:00:00 12.2 11 Nordeste 19 Norte 0 -- -- 68
2020-03-09 22:00:00 13.6 11 Norte 16 Norte 0 -- -- 61
2020-03-09 21:00:00 14.9 8 Norte 14 Norte 0 -- -- 54
2020-03-09 20:00:00 16.2 9 Norte 13 Norte 0 -- -- 48
2020-03-09 19:00:00 19 8 Norte 22 Nordeste 0 -- -- 39
2020-03-09 18:00:00 19.9 16 Nordeste 33 Norte 0 -- -- 35
2020-03-09 17:00:00 20.5 21 Norte 32 Norte 0 -- -- 35
2020-03-09 16:00:00 21.1 19 Norte 32 Norte 0 -- -- 30
2020-03-09 15:00:00 20.9 18 Norte 28 Norte 0 -- -- 33
2020-03-09 14:00:00 19.3 12 Noroeste 24 Norte 0 -- -- 49
2020-03-09 13:00:00 18 12 Norte 23 Nordeste 0 -- -- 50
2020-03-09 12:00:00 16 10 Norte 18 Norte 0 -- -- 62
2020-03-09 11:00:00 12.9 5 Norte 14 Norte 0 -- -- 80
2020-03-09 10:00:00 10 10 Nordeste 15 Nordeste 0 -- -- 97
2020-03-09 09:00:00 8.7 10 Nordeste 19 Nordeste 0 -- -- 98
2020-03-09 08:00:00 8.4 10 Nordeste 17 Norte 0 -- -- 97
2020-03-09 07:00:00 8.4 8 Nordeste 15 Nordeste 0 -- -- 97
2020-03-09 06:00:00 6.8 0 Calma 4 Nordeste 0 -- -- 97
2020-03-09 05:00:00 7.6 2 Este 8 Nordeste 0 -- -- 96
2020-03-09 04:00:00 7.9 6 Nordeste 9 Nordeste 0 -- -- 95
2020-03-09 03:00:00 8.7 0 Calma 18 Norte 0 -- -- 95
2020-03-09 02:00:00 9.1 7 Nordeste 16 Norte 0 -- -- 94
2020-03-09 01:00:00 8.7 0 Calma 7 Este 0 -- -- 91
2020-03-09 00:00:00 10 4 Este 12 Norte 0 -- -- 88
2020-03-08 23:00:00 10.8 9 Norte 14 Norte 0 -- -- 85
2020-03-08 22:00:00 11.7 3 Norte 9 Nordeste 0 -- -- 77
2020-03-08 21:00:00 12.5 7 Nordeste 10 Nordeste 0 -- -- 74
2020-03-08 20:00:00 13.5 7 Nordeste 12 Norte 0 -- -- 65
2020-03-08 19:00:00 15.9 8 Norte 22 Noroeste 0 -- -- 57
2020-03-08 18:00:00 16.9 11 Norte 18 Norte 0 -- -- 50
2020-03-08 17:00:00 17 13 Noroeste 23 Noroeste 0 -- -- 53
2020-03-08 16:00:00 17.7 10 Noroeste 19 Norte 0 -- -- 52
2020-03-08 15:00:00 16.7 11 Noroeste 25 Oeste 0 -- -- 54
2020-03-08 14:00:00 16.2 10 Oeste 22 Oeste 0 -- -- 58
2020-03-08 13:00:00 15.4 7 Oeste 16 Noroeste 0 -- -- 58
2020-03-08 12:00:00 14.3 5 Noroeste 13 Noroeste 0 -- -- 62
2020-03-08 11:00:00 12.2 4 Oeste 10 Noroeste 0 -- -- 74
2020-03-08 10:00:00 9.6 5 Norte 9 Norte 0 -- -- 81
2020-03-08 09:00:00 6.4 0 Calma 4 Sudeste 0 -- -- 88
2020-03-08 08:00:00 3.5 3 Sur 5 Noroeste 0 -- -- 91
2020-03-08 07:00:00 3.7 0 Calma 4 Norte 0 -- -- 88
2020-03-08 06:00:00 5.1 3 Sudeste 7 Este 0 -- -- 82
2020-03-08 05:00:00 5.2 2 Nordeste 7 Este 0 -- -- 81
2020-03-08 04:00:00 7 4 Norte 6 Norte 0 -- -- 75
2020-03-08 03:00:00 7.9 2 Sudeste 10 Este 0 -- -- 71
2020-03-08 02:00:00 8 3 Sudeste 10 Sudeste 0 -- -- 71
2020-03-08 01:00:00 8.8 0 Calma 13 Este 0 -- -- 68
2020-03-08 00:00:00 9.6 5 Este 13 Nordeste 0 -- -- 64
2020-03-07 23:00:00 10.7 8 Nordeste 13 Este 0 -- -- 61
2020-03-07 22:00:00 10.9 9 Nordeste 15 Nordeste 0 -- -- 60
2020-03-07 21:00:00 13.1 13 Nordeste 18 Nordeste 0 -- -- 53
2020-03-07 20:00:00 13.2 12 Nordeste 15 Nordeste 0 -- -- 55
2020-03-07 19:00:00 16.5 10 Norte 17 Norte 0 -- -- 48
2020-03-07 18:00:00 18.3 12 Nordeste 22 Norte 0 -- -- 43
2020-03-07 17:00:00 18.9 11 Norte 27 Norte 0 -- -- 45
2020-03-07 16:00:00 18.8 8 Norte 18 Norte 0 -- -- 44
2020-03-07 15:00:00 18.7 8 Norte 17 Noroeste 0 -- -- 42
2020-03-07 14:00:00 17.5 4 Noroeste 14 Este 0 -- -- 42
2020-03-07 13:00:00 15.9 5 Este 17 Nordeste 0 -- -- 50
2020-03-07 12:00:00 13.5 7 Nordeste 21 Nordeste 0 -- -- 58
2020-03-07 11:00:00 11.2 8 Nordeste 19 Nordeste 0 -- -- 64
2020-03-07 10:00:00 9.2 7 Este 24 Nordeste 0 -- -- 68
2020-03-07 09:00:00 6.5 4 Nordeste 10 Este 0 -- -- 82
2020-03-07 08:00:00 3.9 2 Nordeste 12 Nordeste 0 -- -- 90
2020-03-07 07:00:00 4.4 8 Nordeste 12 Nordeste 0 -- -- 90
2020-03-07 06:00:00 4.8 8 Norte 9 Norte 0 -- -- 92
2020-03-07 05:00:00 4.8 3 Norte 9 Sur 0 -- -- 89
2020-03-07 04:00:00 5.9 6 Sudoeste 21 Norte 0 -- -- 86
2020-03-07 03:00:00 6.8 15 Nordeste 26 Norte 0 -- -- 84
2020-03-07 02:00:00 7.2 14 Nordeste 25 Nordeste 0 -- -- 83
2020-03-07 01:00:00 7.4 13 Nordeste 19 Nordeste 0 -- -- 81
2020-03-07 00:00:00 8.6 11 Nordeste 24 Nordeste 0 -- -- 75
2020-03-06 23:00:00 9 9 Norte 21 Nordeste 0 -- -- 71
2020-03-06 22:00:00 9.9 9 Norte 27 Noroeste 0 -- -- 64
2020-03-06 21:00:00 11 15 Norte 25 Norte 0 -- -- 62
2020-03-06 20:00:00 12.3 16 Norte 30 Norte 0 -- -- 59
2020-03-06 19:00:00 14.3 18 Norte 38 Norte 0 -- -- 57
2020-03-06 18:00:00 15.9 22 Norte 37 Norte 0 -- -- 52
2020-03-06 17:00:00 16.1 21 Norte 41 Norte 0 -- -- 51
2020-03-06 16:00:00 16.2 22 Norte 45 Norte 0 -- -- 52
2020-03-06 15:00:00 15.9 33 Norte 46 Norte 0 -- -- 48
2020-03-06 14:00:00 15.4 28 Norte 46 Norte 0 -- -- 53
2020-03-06 13:00:00 14.7 23 Norte 45 Norte 0 -- -- 54
2020-03-06 12:00:00 13.5 28 Norte 42 Norte 0 -- -- 57
2020-03-06 11:00:00 11.6 20 Norte 41 Noroeste 0 -- -- 72
2020-03-06 10:00:00 10.6 17 Norte 30 Norte 0 -- -- 86
2020-03-06 09:00:00 8.7 6 Noroeste 16 Noroeste 0 -- -- 96
2020-03-06 08:00:00 8 8 Oeste 18 Noroeste 0 -- -- 95
2020-03-06 07:00:00 9 11 Noroeste 24 Noroeste 0 -- -- 96
2020-03-06 06:00:00 8.3 3 Sudoeste 6 Oeste 0 -- -- 95
2020-03-06 05:00:00 8.1 4 Oeste 7 Oeste 0 -- -- 94
2020-03-06 04:00:00 7.4 0 Calma 8 Oeste 0 -- -- 94
2020-03-06 03:00:00 7.6 2 Noroeste 6 Noroeste 0 -- -- 93
2020-03-06 02:00:00 7.6 3 Noroeste 8 Norte 0 -- -- 92
2020-03-06 01:00:00 7.9 6 Noroeste 14 Noroeste 0 -- -- 90
2020-03-06 00:00:00 8.7 9 Noroeste 15 Noroeste 0 -- -- 87
2020-03-05 23:00:00 9.4 11 Noroeste 19 Noroeste 0 -- -- 84
2020-03-05 22:00:00 10.2 9 Noroeste 21 Noroeste 0 -- -- 76
2020-03-05 21:00:00 11.3 12 Noroeste 24 Norte 0 -- -- 71
2020-03-05 20:00:00 12.7 17 Noroeste 31 Noroeste 0 -- -- 63
2020-03-05 19:00:00 14.5 23 Noroeste 37 Noroeste 0 -- -- 58
2020-03-05 18:00:00 16.1 22 Noroeste 45 Noroeste 0 -- -- 54
2020-03-05 17:00:00 16.3 23 Noroeste 40 Noroeste 0 -- -- 56
2020-03-05 16:00:00 16.3 24 Noroeste 41 Noroeste 0 -- -- 56
2020-03-05 15:00:00 16.5 26 Noroeste 41 Noroeste 0 -- -- 53
2020-03-05 14:00:00 15.8 28 Noroeste 42 Noroeste 0 -- -- 58
2020-03-05 13:00:00 15.3 27 Noroeste 43 Noroeste 0 -- -- 60
2020-03-05 12:00:00 14 27 Noroeste 38 Noroeste 0 -- -- 73
2020-03-05 11:00:00 11.8 14 Noroeste 52 Oeste 0.2 -- -- 92
2020-03-05 10:00:00 12.5 16 Oeste 28 Oeste 0.2 -- -- 95
2020-03-05 09:00:00 12.5 15 Sudoeste 22 Sudoeste 0 -- -- 96
2020-03-05 08:00:00 11.9 12 Sudoeste 20 Sudoeste 0 -- -- 96
2020-03-05 07:00:00 12.1 11 Oeste 19 Sudoeste 0 -- -- 96
2020-03-05 06:00:00 12.1 12 Sudoeste 17 Sudoeste 0 -- -- 96
2020-03-05 05:00:00 12.3 5 Sudoeste 8 Sudoeste 0 -- -- 95
2020-03-05 04:00:00 12.3 6 Sudoeste 14 Oeste 0 -- -- 95
2020-03-05 03:00:00 12.4 9 Oeste 17 Oeste 0 -- -- 95
2020-03-05 02:00:00 12.4 9 Noroeste 22 Oeste 0 -- -- 95
2020-03-05 01:00:00 12.3 9 Oeste 18 Oeste 0 -- -- 94
2020-03-05 00:00:00 13.1 6 Oeste 23 Oeste 0 -- -- 91
2020-03-04 23:00:00 13.7 8 Oeste 15 Noroeste 0 -- -- 88
2020-03-04 22:00:00 14 10 Noroeste 19 Noroeste 0 -- -- 86
2020-03-04 21:00:00 14.6 12 Noroeste 20 Noroeste 0 -- -- 81
2020-03-04 20:00:00 16.1 8 Noroeste 14 Oeste 0 -- -- 74
2020-03-04 19:00:00 18.4 10 Oeste 17 Noroeste 0 -- -- 61
2020-03-04 18:00:00 19.6 10 Noroeste 16 Noroeste 0 -- -- 58
2020-03-04 17:00:00 18.7 10 Noroeste 23 Noroeste 0 -- -- 60
2020-03-04 16:00:00 18.8 17 Norte 24 Noroeste 0 -- -- 57
2020-03-04 15:00:00 18.9 9 Norte 27 Norte 0 -- -- 63
2020-03-04 14:00:00 17.6 9 Noroeste 27 Oeste 0 -- -- 62
2020-03-04 13:00:00 16.7 14 Noroeste 23 Oeste 0 -- -- 70
2020-03-04 12:00:00 15.5 16 Noroeste 26 Noroeste 0 -- -- 74
2020-03-04 11:00:00 14 9 Oeste 17 Noroeste 0 -- -- 97
2020-03-04 10:00:00 12.9 5 Oeste 9 Oeste 0 -- -- 98
2020-03-04 09:00:00 12.2 3 Oeste 5 Sudoeste 0 -- -- 98
2020-03-04 08:00:00 12.2 3 Oeste 7 Noroeste 0 -- -- 98
2020-03-04 07:00:00 12.2 5 Noroeste 8 Noroeste 0 -- -- 98
2020-03-04 06:00:00 12.3 4 Noroeste 6 Noroeste 0 -- -- 98
2020-03-04 05:00:00 12.2 3 Noroeste 9 Oeste 0 -- -- 98
2020-03-04 04:00:00 12 4 Oeste 9 Oeste 0 -- -- 97
2020-03-04 03:00:00 12.2 6 Oeste 10 Noroeste 0 -- -- 97
2020-03-04 02:00:00 12.4 3 Oeste 8 Noroeste 0 -- -- 96
2020-03-04 01:00:00 13.1 6 Oeste 8 Oeste 0 -- -- 95
2020-03-04 00:00:00 13.4 2 Sudoeste 8 Noroeste 0 -- -- 94